sensor_id;sensor_type;location;lat;lon;timestamp;P1;durP1;ratioP1;P2;durP2;ratioP2
2129;SDS011;1071;52.544;13.374;2022-09-23T00:00:44;9.50;;;8.20;;
2129;SDS011;1071;52.544;13.374;2022-09-23T00:03:12;7.88;;;7.07;;
2129;SDS011;1071;52.544;13.374;2022-09-23T00:05:40;9.55;;;7.57;;
2129;SDS011;1071;52.544;13.374;2022-09-23T00:08:09;9.07;;;8.20;;
2129;SDS011;1071;52.544;13.374;2022-09-23T00:10:38;16.70;;;7.93;;
2129;SDS011;1071;52.544;13.374;2022-09-23T00:13:06;7.90;;;6.97;;
2129;SDS011;1071;52.544;13.374;2022-09-23T00:15:36;10.57;;;7.32;;
2129;SDS011;1071;52.544;13.374;2022-09-23T00:18:04;8.63;;;6.60;;
2129;SDS011;1071;52.544;13.374;2022-09-23T00:20:32;9.00;;;7.93;;
2129;SDS011;1071;52.544;13.374;2022-09-23T00:22:59;10.27;;;8.43;;
2129;SDS011;1071;52.544;13.374;2022-09-23T00:25:26;12.23;;;7.75;;
2129;SDS011;1071;52.544;13.374;2022-09-23T00:27:56;7.63;;;6.90;;
2129;SDS011;1071;52.544;13.374;2022-09-23T00:30:23;8.07;;;7.28;;
2129;SDS011;1071;52.544;13.374;2022-09-23T00:32:51;7.32;;;6.63;;
2129;SDS011;1071;52.544;13.374;2022-09-23T00:35:18;21.27;;;11.98;;
2129;SDS011;1071;52.544;13.374;2022-09-23T00:37:45;11.80;;;10.60;;
2129;SDS011;1071;52.544;13.374;2022-09-23T00:40:12;10.48;;;9.43;;
2129;SDS011;1071;52.544;13.374;2022-09-23T00:42:44;9.02;;;8.05;;
2129;SDS011;1071;52.544;13.374;2022-09-23T00:45:14;8.73;;;7.97;;
2129;SDS011;1071;52.544;13.374;2022-09-23T00:47:43;7.88;;;6.95;;
2129;SDS011;1071;52.544;13.374;2022-09-23T00:50:14;7.78;;;6.72;;
2129;SDS011;1071;52.544;13.374;2022-09-23T00:52:47;7.60;;;6.60;;
2129;SDS011;1071;52.544;13.374;2022-09-23T00:55:17;7.45;;;6.60;;
2129;SDS011;1071;52.544;13.374;2022-09-23T00:57:48;6.85;;;6.15;;
2129;SDS011;1071;52.544;13.374;2022-09-23T01:00:16;6.60;;;6.00;;
2129;SDS011;1071;52.544;13.374;2022-09-23T01:02:43;7.53;;;6.82;;
2129;SDS011;1071;52.544;13.374;2022-09-23T01:05:11;6.72;;;5.95;;
2129;SDS011;1071;52.544;13.374;2022-09-23T01:07:38;6.60;;;6.00;;
2129;SDS011;1071;52.544;13.374;2022-09-23T01:10:06;6.80;;;6.20;;
2129;SDS011;1071;52.544;13.374;2022-09-23T01:12:48;7.20;;;6.38;;
2129;SDS011;1071;52.544;13.374;2022-09-23T01:15:31;8.10;;;6.32;;
2129;SDS011;1071;52.544;13.374;2022-09-23T01:18:07;6.72;;;5.20;;
2129;SDS011;1071;52.544;13.374;2022-09-23T01:35:26;6.10;;;5.57;;
2129;SDS011;1071;52.544;13.374;2022-09-23T01:38:02;9.32;;;5.97;;
2129;SDS011;1071;52.544;13.374;2022-09-23T01:40:40;6.72;;;6.03;;
2129;SDS011;1071;52.544;13.374;2022-09-23T01:43:15;5.45;;;4.95;;
2129;SDS011;1071;52.544;13.374;2022-09-23T01:45:48;5.82;;;5.30;;
2129;SDS011;1071;52.544;13.374;2022-09-23T01:48:22;5.88;;;4.95;;
2129;SDS011;1071;52.544;13.374;2022-09-23T01:50:59;9.50;;;7.15;;
2129;SDS011;1071;52.544;13.374;2022-09-23T01:53:32;6.10;;;5.50;;
2129;SDS011;1071;52.544;13.374;2022-09-23T01:56:06;6.65;;;5.78;;
2129;SDS011;1071;52.544;13.374;2022-09-23T01:58:38;7.65;;;6.05;;
2129;SDS011;1071;52.544;13.374;2022-09-23T02:01:12;6.47;;;5.88;;
2129;SDS011;1071;52.544;13.374;2022-09-23T02:03:46;6.97;;;6.28;;
2129;SDS011;1071;52.544;13.374;2022-09-23T02:06:18;6.43;;;5.82;;
2129;SDS011;1071;52.544;13.374;2022-09-23T02:08:50;6.90;;;6.18;;
2129;SDS011;1071;52.544;13.374;2022-09-23T02:11:22;8.80;;;6.53;;
2129;SDS011;1071;52.544;13.374;2022-09-23T02:13:51;6.95;;;6.25;;
2129;SDS011;1071;52.544;13.374;2022-09-23T02:16:23;6.10;;;5.47;;
2129;SDS011;1071;52.544;13.374;2022-09-23T02:18:55;6.40;;;5.78;;
2129;SDS011;1071;52.544;13.374;2022-09-23T02:21:25;8.13;;;5.80;;
2129;SDS011;1071;52.544;13.374;2022-09-23T02:23:59;6.45;;;5.85;;
2129;SDS011;1071;52.544;13.374;2022-09-23T02:26:33;5.90;;;5.22;;
2129;SDS011;1071;52.544;13.374;2022-09-23T02:29:06;5.35;;;4.85;;
2129;SDS011;1071;52.544;13.374;2022-09-23T02:31:39;6.97;;;5.32;;
2129;SDS011;1071;52.544;13.374;2022-09-23T02:34:19;7.45;;;6.00;;
2129;SDS011;1071;52.544;13.374;2022-09-23T02:36:56;6.22;;;5.45;;
2129;SDS011;1071;52.544;13.374;2022-09-23T02:39:32;6.15;;;5.60;;
2129;SDS011;1071;52.544;13.374;2022-09-23T02:42:05;6.13;;;5.60;;
2129;SDS011;1071;52.544;13.374;2022-09-23T02:44:34;6.82;;;5.30;;
2129;SDS011;1071;52.544;13.374;2022-09-23T02:47:02;7.10;;;5.95;;
2129;SDS011;1071;52.544;13.374;2022-09-23T02:49:30;8.18;;;5.20;;
2129;SDS011;1071;52.544;13.374;2022-09-23T02:52:03;6.95;;;5.60;;
2129;SDS011;1071;52.544;13.374;2022-09-23T02:54:31;8.40;;;5.75;;
2129;SDS011;1071;52.544;13.374;2022-09-23T02:57:00;7.70;;;6.57;;
2129;SDS011;1071;52.544;13.374;2022-09-23T02:59:30;7.82;;;5.97;;
2129;SDS011;1071;52.544;13.374;2022-09-23T03:02:06;6.82;;;6.18;;
2129;SDS011;1071;52.544;13.374;2022-09-23T03:04:56;6.72;;;5.80;;
2129;SDS011;1071;52.544;13.374;2022-09-23T03:07:32;6.50;;;6.00;;
2129;SDS011;1071;52.544;13.374;2022-09-23T03:10:06;6.35;;;5.80;;
2129;SDS011;1071;52.544;13.374;2022-09-23T03:12:40;7.97;;;6.03;;
2129;SDS011;1071;52.544;13.374;2022-09-23T03:15:17;7.35;;;6.68;;
2129;SDS011;1071;52.544;13.374;2022-09-23T03:17:50;6.55;;;5.95;;
2129;SDS011;1071;52.544;13.374;2022-09-23T03:20:26;6.68;;;6.07;;
2129;SDS011;1071;52.544;13.374;2022-09-23T03:23:00;6.85;;;6.25;;
2129;SDS011;1071;52.544;13.374;2022-09-23T03:25:31;12.52;;;10.30;;
2129;SDS011;1071;52.544;13.374;2022-09-23T03:28:01;7.95;;;7.20;;
2129;SDS011;1071;52.544;13.374;2022-09-23T03:30:30;7.25;;;6.05;;
2129;SDS011;1071;52.544;13.374;2022-09-23T03:32:59;7.88;;;5.88;;
2129;SDS011;1071;52.544;13.374;2022-09-23T03:35:30;7.18;;;6.47;;
2129;SDS011;1071;52.544;13.374;2022-09-23T03:38:22;7.05;;;6.45;;
2129;SDS011;1071;52.544;13.374;2022-09-23T03:40:51;8.70;;;7.95;;
2129;SDS011;1071;52.544;13.374;2022-09-23T03:43:22;7.10;;;6.38;;
2129;SDS011;1071;52.544;13.374;2022-09-23T03:45:51;7.25;;;6.65;;
2129;SDS011;1071;52.544;13.374;2022-09-23T03:48:21;7.80;;;7.05;;
2129;SDS011;1071;52.544;13.374;2022-09-23T03:50:50;8.75;;;7.95;;
2129;SDS011;1071;52.544;13.374;2022-09-23T03:53:17;9.02;;;7.35;;
2129;SDS011;1071;52.544;13.374;2022-09-23T03:55:45;8.25;;;6.95;;
2129;SDS011;1071;52.544;13.374;2022-09-23T03:58:12;6.75;;;6.15;;
2129;SDS011;1071;52.544;13.374;2022-09-23T04:00:40;9.75;;;8.02;;
2129;SDS011;1071;52.544;13.374;2022-09-23T04:03:07;7.75;;;6.68;;
2129;SDS011;1071;52.544;13.374;2022-09-23T04:05:37;8.40;;;6.95;;
2129;SDS011;1071;52.544;13.374;2022-09-23T04:08:05;7.40;;;6.70;;
2129;SDS011;1071;52.544;13.374;2022-09-23T04:10:32;8.38;;;7.55;;
2129;SDS011;1071;52.544;13.374;2022-09-23T04:12:59;7.80;;;6.72;;
2129;SDS011;1071;52.544;13.374;2022-09-23T04:15:26;8.93;;;7.05;;
2129;SDS011;1071;52.544;13.374;2022-09-23T04:17:53;7.30;;;6.60;;
2129;SDS011;1071;52.544;13.374;2022-09-23T04:20:20;10.68;;;7.70;;
2129;SDS011;1071;52.544;13.374;2022-09-23T04:22:47;10.18;;;7.60;;
2129;SDS011;1071;52.544;13.374;2022-09-23T04:25:17;9.18;;;8.02;;
2129;SDS011;1071;52.544;13.374;2022-09-23T04:27:44;14.43;;;9.40;;
2129;SDS011;1071;52.544;13.374;2022-09-23T04:30:12;8.40;;;7.53;;
2129;SDS011;1071;52.544;13.374;2022-09-23T04:32:39;9.50;;;7.13;;
2129;SDS011;1071;52.544;13.374;2022-09-23T04:35:06;9.00;;;8.15;;
2129;SDS011;1071;52.544;13.374;2022-09-23T04:37:33;9.02;;;8.13;;
2129;SDS011;1071;52.544;13.374;2022-09-23T04:40:00;6.85;;;6.25;;
2129;SDS011;1071;52.544;13.374;2022-09-23T04:42:29;8.80;;;7.10;;
2129;SDS011;1071;52.544;13.374;2022-09-23T04:44:56;11.57;;;8.07;;
2129;SDS011;1071;52.544;13.374;2022-09-23T04:47:23;8.85;;;7.95;;
2129;SDS011;1071;52.544;13.374;2022-09-23T04:49:50;8.00;;;7.20;;
2129;SDS011;1071;52.544;13.374;2022-09-23T04:52:17;7.72;;;7.03;;
2129;SDS011;1071;52.544;13.374;2022-09-23T04:54:44;9.70;;;7.45;;
2129;SDS011;1071;52.544;13.374;2022-09-23T04:57:11;7.82;;;6.70;;
2129;SDS011;1071;52.544;13.374;2022-09-23T04:59:39;7.05;;;6.35;;
2129;SDS011;1071;52.544;13.374;2022-09-23T05:02:09;8.10;;;7.30;;
2129;SDS011;1071;52.544;13.374;2022-09-23T05:04:36;11.35;;;7.95;;
2129;SDS011;1071;52.544;13.374;2022-09-23T05:07:04;10.95;;;7.90;;
2129;SDS011;1071;52.544;13.374;2022-09-23T05:09:32;8.05;;;6.30;;
2129;SDS011;1071;52.544;13.374;2022-09-23T05:12:05;7.22;;;6.28;;
2129;SDS011;1071;52.544;13.374;2022-09-23T05:14:47;7.50;;;6.07;;
2129;SDS011;1071;52.544;13.374;2022-09-23T05:17:14;7.25;;;6.55;;
2129;SDS011;1071;52.544;13.374;2022-09-23T05:19:41;8.98;;;7.00;;
2129;SDS011;1071;52.544;13.374;2022-09-23T05:22:10;11.15;;;8.57;;
2129;SDS011;1071;52.544;13.374;2022-09-23T05:24:41;9.75;;;7.65;;
2129;SDS011;1071;52.544;13.374;2022-09-23T05:27:12;8.88;;;7.05;;
2129;SDS011;1071;52.544;13.374;2022-09-23T05:29:39;8.82;;;7.38;;
2129;SDS011;1071;52.544;13.374;2022-09-23T05:32:07;8.70;;;7.25;;
2129;SDS011;1071;52.544;13.374;2022-09-23T05:34:34;9.43;;;8.55;;
2129;SDS011;1071;52.544;13.374;2022-09-23T05:37:02;7.22;;;6.53;;
2129;SDS011;1071;52.544;13.374;2022-09-23T05:39:29;7.68;;;6.88;;
2129;SDS011;1071;52.544;13.374;2022-09-23T05:41:56;8.35;;;7.60;;
2129;SDS011;1071;52.544;13.374;2022-09-23T05:44:24;9.13;;;7.68;;
2129;SDS011;1071;52.544;13.374;2022-09-23T05:46:51;8.63;;;6.93;;
2129;SDS011;1071;52.544;13.374;2022-09-23T05:49:19;6.63;;;5.95;;
2129;SDS011;1071;52.544;13.374;2022-09-23T05:51:46;7.88;;;6.60;;
2129;SDS011;1071;52.544;13.374;2022-09-23T05:54:16;6.90;;;6.25;;
2129;SDS011;1071;52.544;13.374;2022-09-23T05:56:43;7.63;;;6.78;;
2129;SDS011;1071;52.544;13.374;2022-09-23T05:59:10;9.57;;;6.82;;
2129;SDS011;1071;52.544;13.374;2022-09-23T06:01:37;9.25;;;6.60;;
2129;SDS011;1071;52.544;13.374;2022-09-23T06:04:05;9.68;;;7.40;;
2129;SDS011;1071;52.544;13.374;2022-09-23T06:06:42;9.18;;;8.38;;
2129;SDS011;1071;52.544;13.374;2022-09-23T06:09:10;7.32;;;6.63;;
2129;SDS011;1071;52.544;13.374;2022-09-23T06:11:42;6.00;;;5.40;;
2129;SDS011;1071;52.544;13.374;2022-09-23T06:14:09;6.50;;;5.88;;
2129;SDS011;1071;52.544;13.374;2022-09-23T06:16:37;6.25;;;5.43;;
2129;SDS011;1071;52.544;13.374;2022-09-23T06:19:04;6.10;;;5.40;;
2129;SDS011;1071;52.544;13.374;2022-09-23T06:21:32;7.57;;;5.47;;
2129;SDS011;1071;52.544;13.374;2022-09-23T06:24:01;12.95;;;10.20;;
2129;SDS011;1071;52.544;13.374;2022-09-23T06:26:28;20.77;;;10.57;;
2129;SDS011;1071;52.544;13.374;2022-09-23T06:28:59;16.58;;;10.23;;
2129;SDS011;1071;52.544;13.374;2022-09-23T06:31:27;19.70;;;8.73;;
2129;SDS011;1071;52.544;13.374;2022-09-23T06:33:54;9.73;;;6.47;;
2129;SDS011;1071;52.544;13.374;2022-09-23T06:36:21;8.95;;;6.20;;
2129;SDS011;1071;52.544;13.374;2022-09-23T06:38:49;7.93;;;6.00;;
2129;SDS011;1071;52.544;13.374;2022-09-23T06:41:23;6.05;;;5.45;;
2129;SDS011;1071;52.544;13.374;2022-09-23T06:43:50;6.15;;;4.40;;
2129;SDS011;1071;52.544;13.374;2022-09-23T06:46:17;7.25;;;6.45;;
2129;SDS011;1071;52.544;13.374;2022-09-23T06:48:45;7.15;;;5.40;;
2129;SDS011;1071;52.544;13.374;2022-09-23T06:51:13;6.45;;;5.75;;
2129;SDS011;1071;52.544;13.374;2022-09-23T06:53:48;6.03;;;5.53;;
2129;SDS011;1071;52.544;13.374;2022-09-23T06:56:17;7.35;;;6.68;;
2129;SDS011;1071;52.544;13.374;2022-09-23T06:58:49;6.70;;;6.00;;
2129;SDS011;1071;52.544;13.374;2022-09-23T07:01:17;7.80;;;6.28;;
2129;SDS011;1071;52.544;13.374;2022-09-23T07:03:45;6.85;;;5.35;;
2129;SDS011;1071;52.544;13.374;2022-09-23T07:06:12;6.35;;;5.75;;
2129;SDS011;1071;52.544;13.374;2022-09-23T07:08:41;6.78;;;5.05;;
2129;SDS011;1071;52.544;13.374;2022-09-23T07:11:14;5.85;;;5.25;;
2129;SDS011;1071;52.544;13.374;2022-09-23T07:13:43;9.60;;;6.70;;
2129;SDS011;1071;52.544;13.374;2022-09-23T07:16:12;7.38;;;6.68;;
2129;SDS011;1071;52.544;13.374;2022-09-23T07:18:39;11.13;;;6.60;;
2129;SDS011;1071;52.544;13.374;2022-09-23T07:21:07;6.80;;;5.63;;
2129;SDS011;1071;52.544;13.374;2022-09-23T07:23:37;5.28;;;4.65;;
2129;SDS011;1071;52.544;13.374;2022-09-23T07:26:04;6.15;;;5.55;;
2129;SDS011;1071;52.544;13.374;2022-09-23T07:28:32;5.75;;;4.65;;
2129;SDS011;1071;52.544;13.374;2022-09-23T07:31:03;5.05;;;4.65;;
2129;SDS011;1071;52.544;13.374;2022-09-23T07:33:39;6.18;;;4.35;;
2129;SDS011;1071;52.544;13.374;2022-09-23T07:36:08;5.40;;;4.90;;
2129;SDS011;1071;52.544;13.374;2022-09-23T07:38:37;5.30;;;4.80;;
2129;SDS011;1071;52.544;13.374;2022-09-23T07:41:05;3.70;;;3.40;;
2129;SDS011;1071;52.544;13.374;2022-09-23T07:43:37;6.63;;;4.85;;
2129;SDS011;1071;52.544;13.374;2022-09-23T07:46:05;5.90;;;5.35;;
2129;SDS011;1071;52.544;13.374;2022-09-23T07:48:35;3.88;;;3.58;;
2129;SDS011;1071;52.544;13.374;2022-09-23T07:51:08;5.90;;;5.05;;
2129;SDS011;1071;52.544;13.374;2022-09-23T07:53:37;5.78;;;4.88;;
2129;SDS011;1071;52.544;13.374;2022-09-23T07:56:04;5.85;;;5.20;;
2129;SDS011;1071;52.544;13.374;2022-09-23T07:58:32;7.68;;;5.53;;
2129;SDS011;1071;52.544;13.374;2022-09-23T08:01:00;6.75;;;5.45;;
2129;SDS011;1071;52.544;13.374;2022-09-23T08:03:28;8.75;;;6.55;;
2129;SDS011;1071;52.544;13.374;2022-09-23T08:06:01;5.45;;;4.88;;
2129;SDS011;1071;52.544;13.374;2022-09-23T08:08:31;9.02;;;5.97;;
2129;SDS011;1071;52.544;13.374;2022-09-23T08:11:00;9.73;;;7.17;;
2129;SDS011;1071;52.544;13.374;2022-09-23T08:13:27;6.47;;;5.72;;
2129;SDS011;1071;52.544;13.374;2022-09-23T08:15:55;10.33;;;6.07;;
2129;SDS011;1071;52.544;13.374;2022-09-23T08:18:22;6.00;;;5.40;;
2129;SDS011;1071;52.544;13.374;2022-09-23T08:20:49;6.07;;;5.20;;
2129;SDS011;1071;52.544;13.374;2022-09-23T08:23:16;6.27;;;5.63;;
2129;SDS011;1071;52.544;13.374;2022-09-23T08:25:55;5.70;;;4.97;;
2129;SDS011;1071;52.544;13.374;2022-09-23T08:28:27;4.80;;;4.40;;
2129;SDS011;1071;52.544;13.374;2022-09-23T08:30:54;7.47;;;5.20;;
2129;SDS011;1071;52.544;13.374;2022-09-23T08:33:22;4.93;;;4.53;;
2129;SDS011;1071;52.544;13.374;2022-09-23T08:35:49;7.50;;;5.40;;
2129;SDS011;1071;52.544;13.374;2022-09-23T08:38:17;5.30;;;4.90;;
2129;SDS011;1071;52.544;13.374;2022-09-23T08:40:47;6.33;;;5.70;;
2129;SDS011;1071;52.544;13.374;2022-09-23T08:43:19;5.50;;;4.70;;
2129;SDS011;1071;52.544;13.374;2022-09-23T08:49:35;5.13;;;4.63;;
2129;SDS011;1071;52.544;13.374;2022-09-23T08:52:13;5.77;;;4.20;;
2129;SDS011;1071;52.544;13.374;2022-09-23T08:54:47;5.53;;;5.00;;
2129;SDS011;1071;52.544;13.374;2022-09-23T08:57:19;4.83;;;4.43;;
2129;SDS011;1071;52.544;13.374;2022-09-23T08:59:59;4.50;;;4.10;;
2129;SDS011;1071;52.544;13.374;2022-09-23T09:02:28;4.67;;;3.80;;
2129;SDS011;1071;52.544;13.374;2022-09-23T09:05:02;7.90;;;4.40;;
2129;SDS011;1071;52.544;13.374;2022-09-23T09:07:34;7.90;;;5.20;;
2129;SDS011;1071;52.544;13.374;2022-09-23T09:10:05;5.93;;;4.30;;
2129;SDS011;1071;52.544;13.374;2022-09-23T09:12:42;4.10;;;3.80;;
2129;SDS011;1071;52.544;13.374;2022-09-23T09:15:12;4.20;;;4.00;;
2129;SDS011;1071;52.544;13.374;2022-09-23T09:17:43;4.60;;;4.20;;
2129;SDS011;1071;52.544;13.374;2022-09-23T09:20:23;4.50;;;4.10;;
2129;SDS011;1071;52.544;13.374;2022-09-23T09:22:57;6.97;;;5.73;;
2129;SDS011;1071;52.544;13.374;2022-09-23T09:25:35;5.50;;;4.47;;
2129;SDS011;1071;52.544;13.374;2022-09-23T09:28:12;4.53;;;4.17;;
2129;SDS011;1071;52.544;13.374;2022-09-23T09:30:43;7.07;;;5.23;;
2129;SDS011;1071;52.544;13.374;2022-09-23T09:33:12;8.80;;;4.93;;
2129;SDS011;1071;52.544;13.374;2022-09-23T09:38:44;6.53;;;4.50;;
2129;SDS011;1071;52.544;13.374;2022-09-23T09:41:12;7.37;;;3.53;;
2129;SDS011;1071;52.544;13.374;2022-09-23T09:43:44;4.30;;;3.60;;
2129;SDS011;1071;52.544;13.374;2022-09-23T09:46:33;3.80;;;3.30;;
2129;SDS011;1071;52.544;13.374;2022-09-23T09:49:10;5.87;;;3.43;;
2129;SDS011;1071;52.544;13.374;2022-09-23T09:51:47;9.43;;;3.73;;
2129;SDS011;1071;52.544;13.374;2022-09-23T09:54:15;5.77;;;3.40;;
2129;SDS011;1071;52.544;13.374;2022-09-23T09:56:47;3.43;;;2.80;;
2129;SDS011;1071;52.544;13.374;2022-09-23T09:59:20;2.80;;;2.60;;
2129;SDS011;1071;52.544;13.374;2022-09-23T10:04:38;2.27;;;2.07;;
2129;SDS011;1071;52.544;13.374;2022-09-23T10:07:07;3.73;;;2.43;;
2129;SDS011;1071;52.544;13.374;2022-09-23T10:09:40;4.27;;;3.87;;
2129;SDS011;1071;52.544;13.374;2022-09-23T10:12:15;4.70;;;4.30;;
2129;SDS011;1071;52.544;13.374;2022-09-23T10:14:51;3.10;;;2.80;;
2129;SDS011;1071;52.544;13.374;2022-09-23T10:17:26;1.93;;;1.83;;
2129;SDS011;1071;52.544;13.374;2022-09-23T10:20:36;2.90;;;1.60;;
2129;SDS011;1071;52.544;13.374;2022-09-23T10:23:06;2.03;;;1.83;;
2129;SDS011;1071;52.544;13.374;2022-09-23T10:25:38;1.93;;;1.80;;
2129;SDS011;1071;52.544;13.374;2022-09-23T10:31:08;4.20;;;2.37;;
2129;SDS011;1071;52.544;13.374;2022-09-23T10:34:17;2.40;;;2.23;;
2129;SDS011;1071;52.544;13.374;2022-09-23T10:36:52;2.33;;;2.13;;
2129;SDS011;1071;52.544;13.374;2022-09-23T10:39:20;2.93;;;2.30;;
2129;SDS011;1071;52.544;13.374;2022-09-23T10:42:07;2.17;;;1.67;;
2129;SDS011;1071;52.544;13.374;2022-09-23T10:45:01;2.33;;;2.13;;
2129;SDS011;1071;52.544;13.374;2022-09-23T10:48:02;1.90;;;1.80;;
2129;SDS011;1071;52.544;13.374;2022-09-23T10:50:37;3.73;;;2.17;;
2129;SDS011;1071;52.544;13.374;2022-09-23T10:53:17;3.90;;;2.23;;
2129;SDS011;1071;52.544;13.374;2022-09-23T10:55:56;2.43;;;2.13;;
2129;SDS011;1071;52.544;13.374;2022-09-23T10:58:45;2.97;;;2.13;;
2129;SDS011;1071;52.544;13.374;2022-09-23T11:01:31;2.97;;;2.77;;
2129;SDS011;1071;52.544;13.374;2022-09-23T11:07:25;2.10;;;1.87;;
2129;SDS011;1071;52.544;13.374;2022-09-23T11:13:09;2.50;;;1.67;;
2129;SDS011;1071;52.544;13.374;2022-09-23T11:15:48;2.07;;;1.90;;
2129;SDS011;1071;52.544;13.374;2022-09-23T11:18:26;1.60;;;1.40;;
2129;SDS011;1071;52.544;13.374;2022-09-23T11:21:17;2.50;;;2.20;;
2129;SDS011;1071;52.544;13.374;2022-09-23T11:27:04;3.77;;;3.00;;
2129;SDS011;1071;52.544;13.374;2022-09-23T11:29:48;3.30;;;3.00;;
2129;SDS011;1071;52.544;13.374;2022-09-23T11:32:25;3.47;;;3.17;;
2129;SDS011;1071;52.544;13.374;2022-09-23T11:35:09;3.37;;;3.07;;
2129;SDS011;1071;52.544;13.374;2022-09-23T11:37:41;3.07;;;2.43;;
2129;SDS011;1071;52.544;13.374;2022-09-23T11:40:16;2.13;;;1.93;;
2129;SDS011;1071;52.544;13.374;2022-09-23T11:42:53;4.57;;;2.60;;
2129;SDS011;1071;52.544;13.374;2022-09-23T11:45:25;2.53;;;2.33;;
2129;SDS011;1071;52.544;13.374;2022-09-23T11:47:57;2.63;;;2.40;;
2129;SDS011;1071;52.544;13.374;2022-09-23T11:50:28;2.57;;;2.30;;
2129;SDS011;1071;52.544;13.374;2022-09-23T11:53:01;4.60;;;2.50;;
2129;SDS011;1071;52.544;13.374;2022-09-23T11:55:37;2.70;;;2.50;;
2129;SDS011;1071;52.544;13.374;2022-09-23T11:58:12;3.83;;;2.37;;
2129;SDS011;1071;52.544;13.374;2022-09-23T12:00:45;2.10;;;1.90;;
2129;SDS011;1071;52.544;13.374;2022-09-23T12:03:18;2.40;;;1.80;;
2129;SDS011;1071;52.544;13.374;2022-09-23T12:05:51;2.10;;;1.83;;
2129;SDS011;1071;52.544;13.374;2022-09-23T12:08:26;4.07;;;3.60;;
2129;SDS011;1071;52.544;13.374;2022-09-23T12:10:59;4.13;;;3.60;;
2129;SDS011;1071;52.544;13.374;2022-09-23T12:13:32;6.60;;;6.00;;
2129;SDS011;1071;52.544;13.374;2022-09-23T12:16:24;3.80;;;3.50;;
2129;SDS011;1071;52.544;13.374;2022-09-23T12:19:07;3.17;;;2.90;;
2129;SDS011;1071;52.544;13.374;2022-09-23T12:21:49;2.30;;;1.80;;
2129;SDS011;1071;52.544;13.374;2022-09-23T12:24:35;4.30;;;3.90;;
2129;SDS011;1071;52.544;13.374;2022-09-23T12:27:20;5.80;;;5.20;;
2129;SDS011;1071;52.544;13.374;2022-09-23T12:29:53;8.00;;;6.00;;
2129;SDS011;1071;52.544;13.374;2022-09-23T12:32:22;5.60;;;5.10;;
2129;SDS011;1071;52.544;13.374;2022-09-23T12:34:56;2.13;;;2.03;;
2129;SDS011;1071;52.544;13.374;2022-09-23T12:37:25;1.80;;;1.70;;
2129;SDS011;1071;52.544;13.374;2022-09-23T12:39:58;1.70;;;1.60;;
2129;SDS011;1071;52.544;13.374;2022-09-23T12:42:34;2.30;;;2.10;;
2129;SDS011;1071;52.544;13.374;2022-09-23T12:45:27;4.83;;;3.57;;
2129;SDS011;1071;52.544;13.374;2022-09-23T12:48:03;6.13;;;4.17;;
2129;SDS011;1071;52.544;13.374;2022-09-23T12:50:49;3.17;;;2.87;;
2129;SDS011;1071;52.544;13.374;2022-09-23T12:59:26;2.73;;;2.00;;
2129;SDS011;1071;52.544;13.374;2022-09-23T13:05:18;3.17;;;2.87;;
2129;SDS011;1071;52.544;13.374;2022-09-23T13:08:05;3.50;;;3.20;;
2129;SDS011;1071;52.544;13.374;2022-09-23T13:10:37;2.80;;;2.60;;
2129;SDS011;1071;52.544;13.374;2022-09-23T13:13:11;2.87;;;2.20;;
2129;SDS011;1071;52.544;13.374;2022-09-23T13:15:50;2.10;;;1.77;;
2129;SDS011;1071;52.544;13.374;2022-09-23T13:24:54;4.20;;;3.80;;
2129;SDS011;1071;52.544;13.374;2022-09-23T13:31:11;2.43;;;2.23;;
2129;SDS011;1071;52.544;13.374;2022-09-23T13:33:41;4.53;;;4.10;;
2129;SDS011;1071;52.544;13.374;2022-09-23T13:36:12;4.73;;;4.33;;
2129;SDS011;1071;52.544;13.374;2022-09-23T13:38:40;5.50;;;4.97;;
2129;SDS011;1071;52.544;13.374;2022-09-23T13:41:09;16.43;;;13.50;;
2129;SDS011;1071;52.544;13.374;2022-09-23T13:43:40;7.10;;;6.40;;
2129;SDS011;1071;52.544;13.374;2022-09-23T13:46:13;7.00;;;6.30;;
2129;SDS011;1071;52.544;13.374;2022-09-23T13:48:43;3.63;;;2.63;;
2129;SDS011;1071;52.544;13.374;2022-09-23T13:51:15;1.80;;;1.70;;
2129;SDS011;1071;52.544;13.374;2022-09-23T13:53:50;1.87;;;1.73;;
2129;SDS011;1071;52.544;13.374;2022-09-23T13:56:18;7.27;;;6.57;;
2129;SDS011;1071;52.544;13.374;2022-09-23T13:58:46;4.37;;;3.97;;
2129;SDS011;1071;52.544;13.374;2022-09-23T14:01:19;2.47;;;2.27;;
2129;SDS011;1071;52.544;13.374;2022-09-23T14:03:48;2.10;;;2.00;;
2129;SDS011;1071;52.544;13.374;2022-09-23T14:06:16;2.60;;;2.40;;
2129;SDS011;1071;52.544;13.374;2022-09-23T14:08:43;3.87;;;2.27;;
2129;SDS011;1071;52.544;13.374;2022-09-23T14:11:13;2.80;;;2.60;;
2129;SDS011;1071;52.544;13.374;2022-09-23T14:13:42;2.83;;;2.40;;
2129;SDS011;1071;52.544;13.374;2022-09-23T14:16:12;3.50;;;3.30;;
2129;SDS011;1071;52.544;13.374;2022-09-23T14:18:42;3.37;;;2.60;;
2129;SDS011;1071;52.544;13.374;2022-09-23T14:21:26;2.27;;;2.07;;
2129;SDS011;1071;52.544;13.374;2022-09-23T14:24:04;1.90;;;1.80;;
2129;SDS011;1071;52.544;13.374;2022-09-23T14:26:39;3.47;;;3.17;;
2129;SDS011;1071;52.544;13.374;2022-09-23T14:29:11;3.33;;;3.13;;
2129;SDS011;1071;52.544;13.374;2022-09-23T14:31:41;3.30;;;3.00;;
2129;SDS011;1071;52.544;13.374;2022-09-23T14:34:44;4.67;;;4.27;;
2129;SDS011;1071;52.544;13.374;2022-09-23T14:37:23;2.83;;;2.63;;
2129;SDS011;1071;52.544;13.374;2022-09-23T14:40:12;3.37;;;2.60;;
2129;SDS011;1071;52.544;13.374;2022-09-23T14:43:09;2.60;;;2.20;;
2129;SDS011;1071;52.544;13.374;2022-09-23T14:45:57;5.63;;;4.13;;
2129;SDS011;1071;52.544;13.374;2022-09-23T14:48:26;2.50;;;2.30;;
2129;SDS011;1071;52.544;13.374;2022-09-23T14:53:50;2.20;;;1.77;;
2129;SDS011;1071;52.544;13.374;2022-09-23T14:56:39;2.00;;;1.70;;
2129;SDS011;1071;52.544;13.374;2022-09-23T14:59:23;2.00;;;1.70;;
2129;SDS011;1071;52.544;13.374;2022-09-23T15:02:27;1.50;;;1.40;;
2129;SDS011;1071;52.544;13.374;2022-09-23T15:05:13;3.13;;;1.83;;
2129;SDS011;1071;52.544;13.374;2022-09-23T15:08:05;3.40;;;2.63;;
2129;SDS011;1071;52.544;13.374;2022-09-23T15:10:57;4.70;;;2.00;;
2129;SDS011;1071;52.544;13.374;2022-09-23T15:13:37;4.40;;;2.50;;
2129;SDS011;1071;52.544;13.374;2022-09-23T15:16:08;3.43;;;2.70;;
2129;SDS011;1071;52.544;13.374;2022-09-23T15:18:37;3.87;;;3.53;;
2129;SDS011;1071;52.544;13.374;2022-09-23T15:21:09;9.20;;;6.77;;
2129;SDS011;1071;52.544;13.374;2022-09-23T15:23:44;5.77;;;4.20;;
2129;SDS011;1071;52.544;13.374;2022-09-23T15:26:14;4.50;;;4.07;;
2129;SDS011;1071;52.544;13.374;2022-09-23T15:28:42;3.10;;;2.80;;
2129;SDS011;1071;52.544;13.374;2022-09-23T15:31:10;3.23;;;2.77;;
2129;SDS011;1071;52.544;13.374;2022-09-23T15:33:39;2.37;;;2.17;;
2129;SDS011;1071;52.544;13.374;2022-09-23T15:36:10;2.93;;;2.40;;
2129;SDS011;1071;52.544;13.374;2022-09-23T15:38:43;2.47;;;2.27;;
2129;SDS011;1071;52.544;13.374;2022-09-23T15:41:11;2.93;;;2.40;;
2129;SDS011;1071;52.544;13.374;2022-09-23T15:43:43;3.67;;;2.70;;
2129;SDS011;1071;52.544;13.374;2022-09-23T15:46:11;5.77;;;3.30;;
2129;SDS011;1071;52.544;13.374;2022-09-23T15:48:44;3.57;;;3.27;;
2129;SDS011;1071;52.544;13.374;2022-09-23T15:51:19;3.10;;;2.77;;
2129;SDS011;1071;52.544;13.374;2022-09-23T15:53:48;3.90;;;3.60;;
2129;SDS011;1071;52.544;13.374;2022-09-23T15:56:15;3.50;;;3.20;;
2129;SDS011;1071;52.544;13.374;2022-09-23T15:58:43;3.80;;;3.50;;
2129;SDS011;1071;52.544;13.374;2022-09-23T16:01:14;6.13;;;5.60;;
2129;SDS011;1071;52.544;13.374;2022-09-23T16:03:46;5.87;;;5.27;;
2129;SDS011;1071;52.544;13.374;2022-09-23T16:06:13;7.33;;;6.63;;
2129;SDS011;1071;52.544;13.374;2022-09-23T16:08:45;10.00;;;9.00;;
2129;SDS011;1071;52.544;13.374;2022-09-23T16:11:14;6.57;;;5.97;;
2129;SDS011;1071;52.544;13.374;2022-09-23T16:13:44;7.63;;;6.97;;
2129;SDS011;1071;52.544;13.374;2022-09-23T16:16:11;8.00;;;6.60;;
2129;SDS011;1071;52.544;13.374;2022-09-23T16:18:41;8.17;;;7.37;;
2129;SDS011;1071;52.544;13.374;2022-09-23T16:21:08;8.83;;;8.00;;
2129;SDS011;1071;52.544;13.374;2022-09-23T16:23:38;8.77;;;7.67;;
2129;SDS011;1071;52.544;13.374;2022-09-23T16:26:09;8.43;;;7.63;;
2129;SDS011;1071;52.544;13.374;2022-09-23T16:28:47;8.10;;;7.30;;
2129;SDS011;1071;52.544;13.374;2022-09-23T16:31:15;7.10;;;6.40;;